»·PEaware :: N3318Q K7S5-KPDX

N3318Q :: K7S5-KPDX

FLIGHT INFORMATION

Flight Status: Arrived
Operator: Privately registered:
United States
More flights under this callsign
Pilot: Dan A. (12711)
Aircraft: CESSNA 310
(C310)
More flights by this aircraft type
Origin: K7S5
Destination: KPDX Portland Intl
United States
More flights between these airports :: More routes between these airports
Route: BREAF ENDZZ
File this flight plan on PilotEdge
Remarks:
Altitude:
(Current/Filed)
5,000ft
Speed:
(Current/Filed)
180kts
Departed: 29-Dec-17 05:41 PM
Arrived: 29-Dec-17 06:10 PM
Distance/Time
Traveled:
Not Available
Distance/Time
To Go:
Arrived

Flight Plot

Page will automatically refresh every two minutes.

Flight plan parsing failed; only flown route is shown


Map Options




Map Legend


Flown Route
Filed Route
Departure Airport
Arrival Airport
Navaid (VOR, NDB)
Fix

Horizontal Profiles

Position Reports

Time Latitude Longitude Heading Altitude Ground
Speed
29-Dec-17 17:05 44.870738 -123.198258 179 179ft 0kts
29-Dec-17 17:06 44.868230 -123.197006 275 179ft 0kts
29-Dec-17 17:07 44.868230 -123.197006 275 179ft 0kts
29-Dec-17 17:08 44.868230 -123.197006 275 179ft 0kts
29-Dec-17 17:09 44.868230 -123.197008 275 179ft 0kts
29-Dec-17 17:10 44.868230 -123.197009 275 179ft 0kts
29-Dec-17 17:11 44.868230 -123.197009 275 179ft 0kts
29-Dec-17 17:12 44.868230 -123.197009 275 179ft 0kts
29-Dec-17 17:13 44.868230 -123.197009 275 179ft 0kts
29-Dec-17 17:14 44.868230 -123.197009 275 179ft 0kts
29-Dec-17 17:15 44.868230 -123.197009 275 179ft 0kts
29-Dec-17 17:16 44.868230 -123.197009 275 179ft 0kts
29-Dec-17 17:17 44.868230 -123.197009 275 179ft 0kts
29-Dec-17 17:18 44.868230 -123.197009 275 179ft 0kts
29-Dec-17 17:19 44.868230 -123.197009 275 179ft 0kts
29-Dec-17 17:20 44.868230 -123.197009 275 179ft 0kts
29-Dec-17 17:21 44.868230 -123.197009 275 179ft 0kts
29-Dec-17 17:22 44.868230 -123.197009 275 179ft 0kts
29-Dec-17 17:23 44.868230 -123.197009 275 179ft 0kts
29-Dec-17 17:24 44.868230 -123.197009 275 179ft 0kts
29-Dec-17 17:25 44.868230 -123.197009 275 179ft 0kts
29-Dec-17 17:26 44.868230 -123.197009 275 179ft 0kts
29-Dec-17 17:27 44.868231 -123.197011 275 179ft 0kts
29-Dec-17 17:28 44.868231 -123.197014 275 179ft 0kts
29-Dec-17 17:29 44.868231 -123.197016 275 179ft 0kts
29-Dec-17 17:30 44.868231 -123.197019 275 179ft 0kts
29-Dec-17 17:31 44.868231 -123.197022 275 179ft 0kts
29-Dec-17 17:32 44.868232 -123.197025 275 179ft 0kts
29-Dec-17 17:33 44.868232 -123.197028 275 179ft 0kts
29-Dec-17 17:34 44.868232 -123.197030 275 179ft 0kts
29-Dec-17 17:35 44.868232 -123.197033 275 179ft 0kts
29-Dec-17 17:36 44.868232 -123.197036 275 179ft 0kts
29-Dec-17 17:37 44.868233 -123.197039 275 179ft 0kts
29-Dec-17 17:38 44.868233 -123.197041 275 179ft 0kts
29-Dec-17 17:39 44.868233 -123.197044 275 179ft 0kts
29-Dec-17 17:40 44.868233 -123.197046 275 179ft 0kts
29-Dec-17 17:41 44.868233 -123.197049 275 179ft 0kts
29-Dec-17 17:42 44.868234 -123.197052 275 179ft 0kts
29-Dec-17 17:43 44.868234 -123.197055 275 179ft 0kts
29-Dec-17 17:44 44.868234 -123.197058 275 179ft 0kts
29-Dec-17 17:45 44.868396 -123.198144 260 179ft 3kts
29-Dec-17 17:46 44.870680 -123.198306 43 179ft 0kts
29-Dec-17 17:47 44.853538 -123.188996 120 797ft 134kts
29-Dec-17 17:48 44.886577 -123.192565 6 1472ft 208kts
29-Dec-17 17:49 44.937455 -123.159573 21 2432ft 200kts
29-Dec-17 17:50 44.988675 -123.120439 22 2987ft 208kts
29-Dec-17 17:51 45.033418 -123.070333 26 3882ft 202kts
29-Dec-17 17:52 45.074032 -123.020685 26 4725ft 175kts
29-Dec-17 17:53 45.110854 -122.979448 17 4977ft 172kts
29-Dec-17 17:54 45.150643 -122.939123 17 4929ft 182kts
29-Dec-17 17:55 45.195727 -122.897136 17 4459ft 185kts
29-Dec-17 17:56 45.232676 -122.858671 18 4987ft 160kts
29-Dec-17 17:57 45.270255 -122.821708 4 5006ft 160kts
29-Dec-17 17:58 45.309716 -122.808424 343 5015ft 142kts
29-Dec-17 17:59 45.348990 -122.805028 340 5004ft 141kts
29-Dec-17 18:00 45.389391 -122.799037 346 4986ft 148kts
29-Dec-17 18:01 45.427948 -122.790097 346 4990ft 133kts
29-Dec-17 18:02 45.460588 -122.793886 326 5006ft 114kts
29-Dec-17 18:03 45.492293 -122.801729 326 5008ft 115kts
29-Dec-17 18:04 45.524378 -122.810037 326 5013ft 122kts
29-Dec-17 18:05 45.559826 -122.820353 326 4780ft 143kts
29-Dec-17 18:06 45.597074 -122.834249 326 4035ft 128kts
29-Dec-17 18:07 45.629667 -122.849957 308 3417ft 119kts
29-Dec-17 18:08 45.656372 -122.877051 306 2962ft 108kts
29-Dec-17 18:09 45.680452 -122.897132 317 2960ft 104kts
29-Dec-17 18:10 45.690743 -122.852019 133 2979ft 147kts
29-Dec-17 18:11 45.668483 -122.804956 147 2993ft 143kts
29-Dec-17 18:12 45.649602 -122.752864 127 2546ft 153kts
29-Dec-17 18:13 45.635608 -122.704675 139 1214ft 114kts
29-Dec-17 18:14 45.620650 -122.674546 145 964ft 95kts
29-Dec-17 18:15 45.602870 -122.639321 130 379ft 113kts
29-Dec-17 18:16 45.590378 -122.608878 115 21ft 16kts
29-Dec-17 18:17 45.589572 -122.605495 34 21ft 0kts
29-Dec-17 18:20 45.591273 -122.599667 95 21ft 28kts
29-Dec-17 18:21 45.591342 -122.592248 112 21ft 13kts
29-Dec-17 18:22 45.589957 -122.588493 108 21ft 14kts
29-Dec-17 18:23 45.586316 -122.581979 131 21ft 24kts
29-Dec-17 18:24 45.585372 -122.580388 129 21ft 0kts
29-Dec-17 18:25 45.585371 -122.580388 129 21ft 0kts
29-Dec-17 18:26 45.585371 -122.580388 129 21ft 0kts

Navigation Log

Ident Type
Flight plan parsing failed, navigation log unavailable